sensor_id;sensor_type;location;lat;lon;timestamp;P1;durP1;ratioP1;P2;durP2;ratioP2
20185;SDS011;10252;48.792;8.582;2023-02-24T00:01:46;12.38;;;6.55;;
20185;SDS011;10252;48.792;8.582;2023-02-24T00:06:50;14.30;;;8.55;;
20185;SDS011;10252;48.792;8.582;2023-02-24T00:16:52;15.75;;;9.73;;
20185;SDS011;10252;48.792;8.582;2023-02-24T00:21:53;24.25;;;13.43;;
20185;SDS011;10252;48.792;8.582;2023-02-24T00:26:55;31.83;;;17.73;;
20185;SDS011;10252;48.792;8.582;2023-02-24T00:31:58;31.70;;;18.75;;
20185;SDS011;10252;48.792;8.582;2023-02-24T00:37:00;50.05;;;27.08;;
20185;SDS011;10252;48.792;8.582;2023-02-24T00:42:02;60.53;;;31.58;;
20185;SDS011;10252;48.792;8.582;2023-02-24T00:47:04;60.45;;;32.25;;
20185;SDS011;10252;48.792;8.582;2023-02-24T00:52:10;64.13;;;32.05;;
20185;SDS011;10252;48.792;8.582;2023-02-24T00:57:14;68.32;;;33.35;;
20185;SDS011;10252;48.792;8.582;2023-02-24T01:02:20;67.50;;;34.10;;
20185;SDS011;10252;48.792;8.582;2023-02-24T01:07:57;77.85;;;36.60;;
20185;SDS011;10252;48.792;8.582;2023-02-24T01:12:58;69.97;;;34.45;;
20185;SDS011;10252;48.792;8.582;2023-02-24T01:17:59;71.68;;;36.47;;
20185;SDS011;10252;48.792;8.582;2023-02-24T01:23:00;77.82;;;36.53;;
20185;SDS011;10252;48.792;8.582;2023-02-24T01:28:02;84.75;;;39.70;;
20185;SDS011;10252;48.792;8.582;2023-02-24T01:33:03;86.20;;;39.45;;
20185;SDS011;10252;48.792;8.582;2023-02-24T01:38:06;76.60;;;36.53;;
20185;SDS011;10252;48.792;8.582;2023-02-24T01:43:08;84.80;;;38.25;;
20185;SDS011;10252;48.792;8.582;2023-02-24T01:48:09;77.38;;;37.42;;
20185;SDS011;10252;48.792;8.582;2023-02-24T01:53:13;83.78;;;38.28;;
20185;SDS011;10252;48.792;8.582;2023-02-24T01:58:24;83.28;;;37.13;;
20185;SDS011;10252;48.792;8.582;2023-02-24T02:03:32;76.40;;;36.67;;
20185;SDS011;10252;48.792;8.582;2023-02-24T02:08:35;80.00;;;38.10;;
20185;SDS011;10252;48.792;8.582;2023-02-24T02:13:38;87.63;;;38.97;;
20185;SDS011;10252;48.792;8.582;2023-02-24T02:34:26;92.50;;;40.33;;
20185;SDS011;10252;48.792;8.582;2023-02-24T02:49:48;90.88;;;40.03;;
20185;SDS011;10252;48.792;8.582;2023-02-24T02:54:58;89.00;;;38.80;;
20185;SDS011;10252;48.792;8.582;2023-02-24T03:00:03;87.30;;;37.95;;
20185;SDS011;10252;48.792;8.582;2023-02-24T03:05:10;87.72;;;38.45;;
20185;SDS011;10252;48.792;8.582;2023-02-24T03:10:19;93.78;;;39.97;;
20185;SDS011;10252;48.792;8.582;2023-02-24T03:15:23;98.80;;;41.70;;
20185;SDS011;10252;48.792;8.582;2023-02-24T03:20:29;97.72;;;40.95;;
20185;SDS011;10252;48.792;8.582;2023-02-24T03:25:42;98.32;;;40.45;;
20185;SDS011;10252;48.792;8.582;2023-02-24T03:30:48;109.15;;;42.90;;
20185;SDS011;10252;48.792;8.582;2023-02-24T03:35:52;111.05;;;43.78;;
20185;SDS011;10252;48.792;8.582;2023-02-24T03:40:55;132.95;;;47.17;;
20185;SDS011;10252;48.792;8.582;2023-02-24T03:46:00;122.20;;;43.70;;
20185;SDS011;10252;48.792;8.582;2023-02-24T03:51:04;127.80;;;43.40;;
20185;SDS011;10252;48.792;8.582;2023-02-24T04:01:50;120.13;;;43.58;;
20185;SDS011;10252;48.792;8.582;2023-02-24T04:06:59;129.23;;;44.33;;
20185;SDS011;10252;48.792;8.582;2023-02-24T04:12:06;139.13;;;44.53;;
20185;SDS011;10252;48.792;8.582;2023-02-24T04:17:19;172.27;;;48.60;;
20185;SDS011;10252;48.792;8.582;2023-02-24T04:22:23;145.00;;;48.00;;
20185;SDS011;10252;48.792;8.582;2023-02-24T04:27:26;194.10;;;48.63;;
20185;SDS011;10252;48.792;8.582;2023-02-24T04:32:42;187.40;;;49.05;;
20185;SDS011;10252;48.792;8.582;2023-02-24T04:37:44;202.48;;;48.67;;
20185;SDS011;10252;48.792;8.582;2023-02-24T04:42:45;164.15;;;50.53;;
20185;SDS011;10252;48.792;8.582;2023-02-24T04:47:46;165.13;;;48.50;;
20185;SDS011;10252;48.792;8.582;2023-02-24T04:52:52;168.75;;;48.10;;
20185;SDS011;10252;48.792;8.582;2023-02-24T04:57:55;162.73;;;47.45;;
20185;SDS011;10252;48.792;8.582;2023-02-24T05:02:56;155.07;;;44.80;;
20185;SDS011;10252;48.792;8.582;2023-02-24T05:08:01;177.63;;;45.65;;
20185;SDS011;10252;48.792;8.582;2023-02-24T05:13:02;157.07;;;43.15;;
20185;SDS011;10252;48.792;8.582;2023-02-24T05:18:06;168.73;;;41.97;;
20185;SDS011;10252;48.792;8.582;2023-02-24T05:23:07;165.23;;;42.63;;
20185;SDS011;10252;48.792;8.582;2023-02-24T05:28:10;163.88;;;43.72;;
20185;SDS011;10252;48.792;8.582;2023-02-24T05:33:11;135.50;;;41.35;;
20185;SDS011;10252;48.792;8.582;2023-02-24T05:38:12;147.48;;;40.13;;
20185;SDS011;10252;48.792;8.582;2023-02-24T05:43:14;251.55;;;47.08;;
20185;SDS011;10252;48.792;8.582;2023-02-24T05:48:18;224.60;;;44.80;;
20185;SDS011;10252;48.792;8.582;2023-02-24T05:53:19;241.38;;;45.45;;
20185;SDS011;10252;48.792;8.582;2023-02-24T05:58:22;313.55;;;49.63;;
20185;SDS011;10252;48.792;8.582;2023-02-24T06:03:23;247.10;;;47.90;;
20185;SDS011;10252;48.792;8.582;2023-02-24T06:08:30;201.00;;;45.28;;
20185;SDS011;10252;48.792;8.582;2023-02-24T06:13:41;201.07;;;45.10;;
20185;SDS011;10252;48.792;8.582;2023-02-24T06:18:47;192.32;;;43.55;;
20185;SDS011;10252;48.792;8.582;2023-02-24T06:23:49;164.38;;;38.53;;
20185;SDS011;10252;48.792;8.582;2023-02-24T06:28:53;171.13;;;41.60;;
20185;SDS011;10252;48.792;8.582;2023-02-24T06:33:54;173.30;;;41.80;;
20185;SDS011;10252;48.792;8.582;2023-02-24T06:38:56;215.23;;;44.20;;
20185;SDS011;10252;48.792;8.582;2023-02-24T06:43:57;193.82;;;41.65;;
20185;SDS011;10252;48.792;8.582;2023-02-24T06:48:58;179.73;;;42.58;;
20185;SDS011;10252;48.792;8.582;2023-02-24T06:53:59;198.60;;;43.67;;
20185;SDS011;10252;48.792;8.582;2023-02-24T06:59:01;180.13;;;39.45;;
20185;SDS011;10252;48.792;8.582;2023-02-24T07:04:03;166.80;;;38.20;;
20185;SDS011;10252;48.792;8.582;2023-02-24T07:09:11;183.93;;;41.47;;
20185;SDS011;10252;48.792;8.582;2023-02-24T07:14:12;149.77;;;38.45;;
20185;SDS011;10252;48.792;8.582;2023-02-24T07:19:14;171.63;;;40.58;;
20185;SDS011;10252;48.792;8.582;2023-02-24T07:24:19;133.25;;;42.10;;
20185;SDS011;10252;48.792;8.582;2023-02-24T07:29:32;135.05;;;38.08;;
20185;SDS011;10252;48.792;8.582;2023-02-24T07:34:33;118.22;;;35.35;;
20185;SDS011;10252;48.792;8.582;2023-02-24T07:39:38;106.97;;;35.80;;
20185;SDS011;10252;48.792;8.582;2023-02-24T07:44:42;69.55;;;25.10;;
20185;SDS011;10252;48.792;8.582;2023-02-24T07:49:45;62.88;;;23.92;;
20185;SDS011;10252;48.792;8.582;2023-02-24T07:54:46;66.07;;;26.70;;
20185;SDS011;10252;48.792;8.582;2023-02-24T07:59:48;62.42;;;22.90;;
20185;SDS011;10252;48.792;8.582;2023-02-24T08:04:49;56.13;;;22.30;;
20185;SDS011;10252;48.792;8.582;2023-02-24T08:09:50;47.38;;;20.23;;
20185;SDS011;10252;48.792;8.582;2023-02-24T08:15:11;44.85;;;20.15;;
20185;SDS011;10252;48.792;8.582;2023-02-24T08:20:22;43.00;;;19.42;;
20185;SDS011;10252;48.792;8.582;2023-02-24T08:25:27;39.67;;;18.73;;
20185;SDS011;10252;48.792;8.582;2023-02-24T08:30:35;36.92;;;19.90;;
20185;SDS011;10252;48.792;8.582;2023-02-24T08:35:39;41.95;;;20.38;;
20185;SDS011;10252;48.792;8.582;2023-02-24T08:40:47;36.47;;;18.23;;
20185;SDS011;10252;48.792;8.582;2023-02-24T08:51:19;30.65;;;16.35;;
20185;SDS011;10252;48.792;8.582;2023-02-24T08:56:22;21.98;;;9.75;;
20185;SDS011;10252;48.792;8.582;2023-02-24T09:01:28;21.15;;;9.38;;
20185;SDS011;10252;48.792;8.582;2023-02-24T09:06:41;20.98;;;9.77;;
20185;SDS011;10252;48.792;8.582;2023-02-24T09:11:52;25.77;;;10.38;;
20185;SDS011;10252;48.792;8.582;2023-02-24T09:16:56;21.77;;;10.00;;
20185;SDS011;10252;48.792;8.582;2023-02-24T09:22:10;22.25;;;10.90;;
20185;SDS011;10252;48.792;8.582;2023-02-24T09:27:30;23.00;;;11.95;;
20185;SDS011;10252;48.792;8.582;2023-02-24T09:32:31;28.52;;;12.00;;
20185;SDS011;10252;48.792;8.582;2023-02-24T09:37:33;25.38;;;12.55;;
20185;SDS011;10252;48.792;8.582;2023-02-24T09:42:34;38.92;;;15.35;;
20185;SDS011;10252;48.792;8.582;2023-02-24T09:47:45;32.50;;;15.13;;
20185;SDS011;10252;48.792;8.582;2023-02-24T09:52:56;36.47;;;15.98;;
20185;SDS011;10252;48.792;8.582;2023-02-24T10:03:32;35.42;;;18.00;;
20185;SDS011;10252;48.792;8.582;2023-02-24T10:08:54;41.03;;;17.33;;
20185;SDS011;10252;48.792;8.582;2023-02-24T10:14:02;39.20;;;18.48;;
20185;SDS011;10252;48.792;8.582;2023-02-24T10:19:06;44.00;;;17.80;;
20185;SDS011;10252;48.792;8.582;2023-02-24T10:34:38;29.92;;;14.68;;
20185;SDS011;10252;48.792;8.582;2023-02-24T10:39:39;37.22;;;17.20;;
20185;SDS011;10252;48.792;8.582;2023-02-24T10:44:43;30.35;;;14.07;;
20185;SDS011;10252;48.792;8.582;2023-02-24T10:49:51;26.70;;;13.80;;
20185;SDS011;10252;48.792;8.582;2023-02-24T10:54:58;27.15;;;13.30;;
20185;SDS011;10252;48.792;8.582;2023-02-24T11:00:15;28.75;;;13.30;;
20185;SDS011;10252;48.792;8.582;2023-02-24T11:05:17;30.20;;;12.25;;
20185;SDS011;10252;48.792;8.582;2023-02-24T11:10:38;26.83;;;12.20;;
20185;SDS011;10252;48.792;8.582;2023-02-24T11:15:52;22.50;;;12.63;;
20185;SDS011;10252;48.792;8.582;2023-02-24T11:21:13;22.85;;;13.05;;
20185;SDS011;10252;48.792;8.582;2023-02-24T11:26:25;23.92;;;11.45;;
20185;SDS011;10252;48.792;8.582;2023-02-24T11:31:43;22.70;;;12.30;;
20185;SDS011;10252;48.792;8.582;2023-02-24T11:42:11;22.80;;;11.20;;
20185;SDS011;10252;48.792;8.582;2023-02-24T11:47:13;22.45;;;10.85;;
20185;SDS011;10252;48.792;8.582;2023-02-24T11:52:17;19.10;;;9.23;;
20185;SDS011;10252;48.792;8.582;2023-02-24T11:57:21;20.27;;;10.10;;
20185;SDS011;10252;48.792;8.582;2023-02-24T12:07:36;20.75;;;9.48;;
20185;SDS011;10252;48.792;8.582;2023-02-24T12:18:11;18.77;;;8.68;;
20185;SDS011;10252;48.792;8.582;2023-02-24T12:23:16;23.58;;;10.13;;
20185;SDS011;10252;48.792;8.582;2023-02-24T12:33:48;22.25;;;9.10;;
20185;SDS011;10252;48.792;8.582;2023-02-24T12:38:54;19.38;;;10.40;;
20185;SDS011;10252;48.792;8.582;2023-02-24T12:44:03;23.33;;;10.18;;
20185;SDS011;10252;48.792;8.582;2023-02-24T12:59:33;25.42;;;9.20;;
20185;SDS011;10252;48.792;8.582;2023-02-24T13:10:08;18.77;;;9.13;;
20185;SDS011;10252;48.792;8.582;2023-02-24T13:15:23;17.35;;;8.38;;
20185;SDS011;10252;48.792;8.582;2023-02-24T13:20:32;22.75;;;11.00;;
20185;SDS011;10252;48.792;8.582;2023-02-24T13:25:36;16.90;;;9.75;;
20185;SDS011;10252;48.792;8.582;2023-02-24T13:30:38;20.45;;;9.82;;
20185;SDS011;10252;48.792;8.582;2023-02-24T13:35:40;21.42;;;9.63;;
20185;SDS011;10252;48.792;8.582;2023-02-24T13:40:41;19.10;;;9.63;;
20185;SDS011;10252;48.792;8.582;2023-02-24T13:45:42;19.80;;;9.15;;
20185;SDS011;10252;48.792;8.582;2023-02-24T14:01:20;21.00;;;10.30;;
20185;SDS011;10252;48.792;8.582;2023-02-24T14:06:24;28.73;;;12.23;;
20185;SDS011;10252;48.792;8.582;2023-02-24T14:11:27;22.90;;;11.60;;
20185;SDS011;10252;48.792;8.582;2023-02-24T14:16:33;33.05;;;13.48;;
20185;SDS011;10252;48.792;8.582;2023-02-24T14:21:37;28.02;;;12.25;;
20185;SDS011;10252;48.792;8.582;2023-02-24T14:26:43;22.58;;;11.55;;
20185;SDS011;10252;48.792;8.582;2023-02-24T14:31:48;26.80;;;13.77;;
20185;SDS011;10252;48.792;8.582;2023-02-24T14:36:51;30.10;;;13.50;;
20185;SDS011;10252;48.792;8.582;2023-02-24T14:42:03;23.40;;;12.38;;
20185;SDS011;10252;48.792;8.582;2023-02-24T14:47:08;30.30;;;12.88;;
20185;SDS011;10252;48.792;8.582;2023-02-24T14:57:15;24.15;;;12.80;;
20185;SDS011;10252;48.792;8.582;2023-02-24T15:02:21;26.95;;;13.20;;
20185;SDS011;10252;48.792;8.582;2023-02-24T15:07:30;26.35;;;12.40;;
20185;SDS011;10252;48.792;8.582;2023-02-24T15:12:33;24.15;;;12.88;;
20185;SDS011;10252;48.792;8.582;2023-02-24T15:17:39;22.80;;;12.82;;
20185;SDS011;10252;48.792;8.582;2023-02-24T15:22:46;29.83;;;14.07;;
20185;SDS011;10252;48.792;8.582;2023-02-24T15:32:57;29.80;;;15.73;;
20185;SDS011;10252;48.792;8.582;2023-02-24T15:37:58;28.58;;;15.48;;
20185;SDS011;10252;48.792;8.582;2023-02-24T15:43:07;31.13;;;16.05;;
20185;SDS011;10252;48.792;8.582;2023-02-24T15:48:26;34.63;;;15.27;;
20185;SDS011;10252;48.792;8.582;2023-02-24T15:53:28;40.08;;;19.63;;
20185;SDS011;10252;48.792;8.582;2023-02-24T15:58:29;33.03;;;14.93;;
20185;SDS011;10252;48.792;8.582;2023-02-24T16:03:32;26.42;;;15.63;;
20185;SDS011;10252;48.792;8.582;2023-02-24T16:08:33;29.20;;;14.95;;
20185;SDS011;10252;48.792;8.582;2023-02-24T16:13:44;23.98;;;13.32;;
20185;SDS011;10252;48.792;8.582;2023-02-24T16:18:47;27.38;;;13.75;;
20185;SDS011;10252;48.792;8.582;2023-02-24T16:23:49;23.50;;;12.45;;
20185;SDS011;10252;48.792;8.582;2023-02-24T16:28:54;21.63;;;10.50;;
20185;SDS011;10252;48.792;8.582;2023-02-24T16:33:55;18.67;;;9.75;;
20185;SDS011;10252;48.792;8.582;2023-02-24T16:38:57;19.50;;;11.00;;
20185;SDS011;10252;48.792;8.582;2023-02-24T16:43:59;21.48;;;10.25;;
20185;SDS011;10252;48.792;8.582;2023-02-24T16:49:00;21.58;;;10.68;;
20185;SDS011;10252;48.792;8.582;2023-02-24T16:54:01;18.63;;;10.82;;
20185;SDS011;10252;48.792;8.582;2023-02-24T16:59:03;22.75;;;12.35;;
20185;SDS011;10252;48.792;8.582;2023-02-24T17:04:04;22.92;;;11.85;;
20185;SDS011;10252;48.792;8.582;2023-02-24T17:09:08;29.85;;;16.13;;
20185;SDS011;10252;48.792;8.582;2023-02-24T17:14:13;21.48;;;11.25;;
20185;SDS011;10252;48.792;8.582;2023-02-24T17:19:15;21.42;;;10.90;;
20185;SDS011;10252;48.792;8.582;2023-02-24T17:24:17;26.27;;;11.82;;
20185;SDS011;10252;48.792;8.582;2023-02-24T17:29:19;21.15;;;10.88;;
20185;SDS011;10252;48.792;8.582;2023-02-24T17:34:20;23.48;;;12.30;;
20185;SDS011;10252;48.792;8.582;2023-02-24T17:39:23;21.80;;;12.07;;
20185;SDS011;10252;48.792;8.582;2023-02-24T17:44:24;27.70;;;12.20;;
20185;SDS011;10252;48.792;8.582;2023-02-24T17:49:25;26.25;;;13.50;;
20185;SDS011;10252;48.792;8.582;2023-02-24T17:54:26;25.92;;;12.57;;
20185;SDS011;10252;48.792;8.582;2023-02-24T17:59:27;29.02;;;14.05;;
20185;SDS011;10252;48.792;8.582;2023-02-24T18:04:28;27.88;;;12.02;;
20185;SDS011;10252;48.792;8.582;2023-02-24T18:09:32;27.60;;;13.05;;
20185;SDS011;10252;48.792;8.582;2023-02-24T18:14:33;27.20;;;13.30;;
20185;SDS011;10252;48.792;8.582;2023-02-24T18:19:34;30.27;;;12.82;;
20185;SDS011;10252;48.792;8.582;2023-02-24T18:24:36;33.28;;;14.43;;
20185;SDS011;10252;48.792;8.582;2023-02-24T18:29:38;24.70;;;13.15;;
20185;SDS011;10252;48.792;8.582;2023-02-24T18:34:39;32.53;;;14.05;;
20185;SDS011;10252;48.792;8.582;2023-02-24T18:39:40;34.63;;;14.73;;
20185;SDS011;10252;48.792;8.582;2023-02-24T18:44:41;29.33;;;13.25;;
20185;SDS011;10252;48.792;8.582;2023-02-24T18:49:42;28.27;;;13.20;;
20185;SDS011;10252;48.792;8.582;2023-02-24T18:54:43;30.15;;;15.07;;
20185;SDS011;10252;48.792;8.582;2023-02-24T18:59:48;28.90;;;15.35;;
20185;SDS011;10252;48.792;8.582;2023-02-24T19:04:50;37.40;;;17.02;;
20185;SDS011;10252;48.792;8.582;2023-02-24T19:09:52;35.00;;;14.43;;
20185;SDS011;10252;48.792;8.582;2023-02-24T19:14:53;26.33;;;14.50;;
20185;SDS011;10252;48.792;8.582;2023-02-24T19:19:54;31.15;;;15.10;;
20185;SDS011;10252;48.792;8.582;2023-02-24T19:24:55;29.88;;;13.77;;
20185;SDS011;10252;48.792;8.582;2023-02-24T19:29:57;28.25;;;14.55;;
20185;SDS011;10252;48.792;8.582;2023-02-24T19:34:58;32.10;;;15.90;;
20185;SDS011;10252;48.792;8.582;2023-02-24T19:39:59;29.52;;;15.43;;
20185;SDS011;10252;48.792;8.582;2023-02-24T19:45:01;32.17;;;15.60;;
20185;SDS011;10252;48.792;8.582;2023-02-24T19:50:02;29.58;;;14.93;;
20185;SDS011;10252;48.792;8.582;2023-02-24T19:55:03;32.58;;;15.65;;
20185;SDS011;10252;48.792;8.582;2023-02-24T20:00:04;87.78;;;42.42;;
20185;SDS011;10252;48.792;8.582;2023-02-24T20:05:12;37.00;;;19.40;;
20185;SDS011;10252;48.792;8.582;2023-02-24T20:10:15;36.72;;;17.65;;
20185;SDS011;10252;48.792;8.582;2023-02-24T20:15:16;36.15;;;18.80;;
20185;SDS011;10252;48.792;8.582;2023-02-24T20:20:17;38.97;;;18.13;;
20185;SDS011;10252;48.792;8.582;2023-02-24T20:25:19;40.55;;;17.38;;
20185;SDS011;10252;48.792;8.582;2023-02-24T20:30:20;35.10;;;17.92;;
20185;SDS011;10252;48.792;8.582;2023-02-24T20:35:21;45.05;;;20.63;;
20185;SDS011;10252;48.792;8.582;2023-02-24T20:40:25;32.60;;;16.42;;
20185;SDS011;10252;48.792;8.582;2023-02-24T20:45:29;35.90;;;17.95;;
20185;SDS011;10252;48.792;8.582;2023-02-24T20:50:30;32.20;;;15.93;;
20185;SDS011;10252;48.792;8.582;2023-02-24T20:55:32;45.10;;;23.00;;
20185;SDS011;10252;48.792;8.582;2023-02-24T21:00:33;45.80;;;20.02;;
20185;SDS011;10252;48.792;8.582;2023-02-24T21:05:37;32.72;;;16.73;;
20185;SDS011;10252;48.792;8.582;2023-02-24T21:10:42;32.53;;;17.15;;
20185;SDS011;10252;48.792;8.582;2023-02-24T21:15:50;31.75;;;15.32;;
20185;SDS011;10252;48.792;8.582;2023-02-24T21:20:51;32.53;;;13.60;;
20185;SDS011;10252;48.792;8.582;2023-02-24T21:25:53;29.13;;;12.77;;
20185;SDS011;10252;48.792;8.582;2023-02-24T21:30:54;28.65;;;14.10;;
20185;SDS011;10252;48.792;8.582;2023-02-24T21:35:56;27.95;;;14.05;;
20185;SDS011;10252;48.792;8.582;2023-02-24T21:40:57;30.83;;;14.07;;
20185;SDS011;10252;48.792;8.582;2023-02-24T21:45:59;28.75;;;13.52;;
20185;SDS011;10252;48.792;8.582;2023-02-24T21:51:01;22.88;;;12.55;;
20185;SDS011;10252;48.792;8.582;2023-02-24T22:01:20;23.27;;;11.75;;
20185;SDS011;10252;48.792;8.582;2023-02-24T22:06:22;28.38;;;15.38;;
20185;SDS011;10252;48.792;8.582;2023-02-24T22:11:25;23.35;;;11.50;;
20185;SDS011;10252;48.792;8.582;2023-02-24T22:16:26;17.42;;;7.72;;
20185;SDS011;10252;48.792;8.582;2023-02-24T22:21:28;16.85;;;9.63;;
20185;SDS011;10252;48.792;8.582;2023-02-24T22:26:29;14.02;;;8.02;;
20185;SDS011;10252;48.792;8.582;2023-02-24T22:31:31;12.05;;;7.93;;
20185;SDS011;10252;48.792;8.582;2023-02-24T22:36:36;13.18;;;7.65;;
20185;SDS011;10252;48.792;8.582;2023-02-24T22:41:37;13.20;;;7.88;;
20185;SDS011;10252;48.792;8.582;2023-02-24T22:46:38;13.10;;;8.15;;
20185;SDS011;10252;48.792;8.582;2023-02-24T22:51:39;10.30;;;6.00;;
20185;SDS011;10252;48.792;8.582;2023-02-24T22:56:41;11.60;;;7.20;;
20185;SDS011;10252;48.792;8.582;2023-02-24T23:01:42;10.13;;;6.15;;
20185;SDS011;10252;48.792;8.582;2023-02-24T23:06:43;8.50;;;4.78;;
20185;SDS011;10252;48.792;8.582;2023-02-24T23:11:46;9.10;;;4.68;;
20185;SDS011;10252;48.792;8.582;2023-02-24T23:16:49;8.48;;;4.93;;
20185;SDS011;10252;48.792;8.582;2023-02-24T23:21:54;10.43;;;6.07;;
20185;SDS011;10252;48.792;8.582;2023-02-24T23:26:56;6.10;;;4.60;;
20185;SDS011;10252;48.792;8.582;2023-02-24T23:31:57;9.75;;;5.63;;
20185;SDS011;10252;48.792;8.582;2023-02-24T23:36:58;11.18;;;6.28;;
20185;SDS011;10252;48.792;8.582;2023-02-24T23:41:59;8.77;;;5.85;;
20185;SDS011;10252;48.792;8.582;2023-02-24T23:47:01;13.70;;;7.75;;
20185;SDS011;10252;48.792;8.582;2023-02-24T23:52:04;18.15;;;7.85;;
20185;SDS011;10252;48.792;8.582;2023-02-24T23:57:05;33.17;;;14.57;;
